sensor_id;sensor_type;location;lat;lon;timestamp;pressure;altitude;pressure_sealevel;temperature;humidity
58622;BME280;44389;51.578;5.456;2022-09-09T00:00:18;100672.75;;;12.58;100.00
58622;BME280;44389;51.578;5.456;2022-09-09T00:03:12;100668.41;;;12.56;100.00
58622;BME280;44389;51.578;5.456;2022-09-09T00:08:21;100671.81;;;12.53;100.00
58622;BME280;44389;51.578;5.456;2022-09-09T00:10:56;100672.56;;;12.47;100.00
58622;BME280;44389;51.578;5.456;2022-09-09T00:13:46;100667.41;;;12.47;100.00
58622;BME280;44389;51.578;5.456;2022-09-09T00:16:15;100665.63;;;12.45;100.00
58622;BME280;44389;51.578;5.456;2022-09-09T00:19:06;100669.06;;;12.45;100.00
58622;BME280;44389;51.578;5.456;2022-09-09T00:21:34;100659.53;;;12.41;100.00
58622;BME280;44389;51.578;5.456;2022-09-09T00:24:00;100656.16;;;12.47;100.00
58622;BME280;44389;51.578;5.456;2022-09-09T00:26:35;100646.59;;;12.41;100.00
58622;BME280;44389;51.578;5.456;2022-09-09T00:31:37;100660.34;;;12.39;100.00
58622;BME280;44389;51.578;5.456;2022-09-09T00:34:18;100662.91;;;12.39;100.00
58622;BME280;44389;51.578;5.456;2022-09-09T00:36:48;100659.44;;;12.38;100.00
58622;BME280;44389;51.578;5.456;2022-09-09T00:39:37;100656.84;;;12.38;100.00
58622;BME280;44389;51.578;5.456;2022-09-09T00:42:24;100654.25;;;12.37;100.00
58622;BME280;44389;51.578;5.456;2022-09-09T00:44:59;100651.63;;;12.33;100.00
58622;BME280;44389;51.578;5.456;2022-09-09T00:47:39;100643.91;;;12.35;100.00
58622;BME280;44389;51.578;5.456;2022-09-09T00:52:48;100632.69;;;12.34;100.00
58622;BME280;44389;51.578;5.456;2022-09-09T00:55:30;100629.25;;;12.35;100.00
58622;BME280;44389;51.578;5.456;2022-09-09T00:57:58;100633.56;;;12.35;100.00
58622;BME280;44389;51.578;5.456;2022-09-09T01:00:30;100631.78;;;12.32;100.00
58622;BME280;44389;51.578;5.456;2022-09-09T01:08:18;100624.94;;;12.34;100.00
58622;BME280;44389;51.578;5.456;2022-09-09T01:10:51;100636.16;;;12.37;100.00
58622;BME280;44389;51.578;5.456;2022-09-09T01:13:28;100631.81;;;12.35;100.00
58622;BME280;44389;51.578;5.456;2022-09-09T01:15:57;100632.72;;;12.36;100.00
58622;BME280;44389;51.578;5.456;2022-09-09T01:18:27;100631.81;;;12.34;100.00
58622;BME280;44389;51.578;5.456;2022-09-09T01:21:34;100630.13;;;12.34;100.00
58622;BME280;44389;51.578;5.456;2022-09-09T01:26:55;100635.19;;;12.31;100.00
58622;BME280;44389;51.578;5.456;2022-09-09T01:29:22;100629.19;;;12.32;100.00
58622;BME280;44389;51.578;5.456;2022-09-09T01:31:59;100636.09;;;12.32;100.00
58622;BME280;44389;51.578;5.456;2022-09-09T01:34:35;100630.91;;;12.30;100.00
58622;BME280;44389;51.578;5.456;2022-09-09T01:37:05;100625.72;;;12.30;100.00
58622;BME280;44389;51.578;5.456;2022-09-09T01:39:33;100633.44;;;12.29;100.00
58622;BME280;44389;51.578;5.456;2022-09-09T01:42:00;100621.44;;;12.31;100.00
58622;BME280;44389;51.578;5.456;2022-09-09T01:44:27;100620.47;;;12.26;100.00
58622;BME280;44389;51.578;5.456;2022-09-09T01:46:53;100613.66;;;12.29;100.00
58622;BME280;44389;51.578;5.456;2022-09-09T01:49:18;100610.19;;;12.29;100.00
58622;BME280;44389;51.578;5.456;2022-09-09T01:51:46;100623.09;;;12.29;100.00
58622;BME280;44389;51.578;5.456;2022-09-09T01:54:13;100617.09;;;12.30;100.00
58622;BME280;44389;51.578;5.456;2022-09-09T02:00:10;100611.84;;;12.25;100.00
58622;BME280;44389;51.578;5.456;2022-09-09T02:02:59;100618.78;;;12.28;100.00
58622;BME280;44389;51.578;5.456;2022-09-09T02:05:36;100616.97;;;12.24;100.00
58622;BME280;44389;51.578;5.456;2022-09-09T02:08:20;100612.72;;;12.26;100.00
58622;BME280;44389;51.578;5.456;2022-09-09T02:11:08;100608.38;;;12.25;100.00
58622;BME280;44389;51.578;5.456;2022-09-09T02:13:37;100603.19;;;12.23;100.00
58622;BME280;44389;51.578;5.456;2022-09-09T02:16:26;100601.47;;;12.24;100.00
58622;BME280;44389;51.578;5.456;2022-09-09T02:18:55;100597.06;;;12.18;100.00
58622;BME280;44389;51.578;5.456;2022-09-09T02:21:23;100600.56;;;12.20;100.00
58622;BME280;44389;51.578;5.456;2022-09-09T02:23:50;100594.50;;;12.19;100.00
58622;BME280;44389;51.578;5.456;2022-09-09T02:26:18;100591.91;;;12.18;100.00
58622;BME280;44389;51.578;5.456;2022-09-09T02:28:49;100590.16;;;12.18;100.00
58622;BME280;44389;51.578;5.456;2022-09-09T02:31:17;100589.41;;;12.23;100.00
58622;BME280;44389;51.578;5.456;2022-09-09T02:33:48;100591.13;;;12.24;100.00
58622;BME280;44389;51.578;5.456;2022-09-09T02:36:15;100588.53;;;12.22;100.00
58622;BME280;44389;51.578;5.456;2022-09-09T02:38:45;100592.84;;;12.22;100.00
58622;BME280;44389;51.578;5.456;2022-09-09T02:41:15;100591.09;;;12.22;100.00
58622;BME280;44389;51.578;5.456;2022-09-09T02:43:40;100593.66;;;12.21;100.00
58622;BME280;44389;51.578;5.456;2022-09-09T02:49:06;100596.22;;;12.17;100.00
58622;BME280;44389;51.578;5.456;2022-09-09T02:51:52;100597.94;;;12.18;100.00
58622;BME280;44389;51.578;5.456;2022-09-09T02:54:31;100591.88;;;12.16;100.00
58622;BME280;44389;51.578;5.456;2022-09-09T02:57:17;100590.16;;;12.17;100.00
58622;BME280;44389;51.578;5.456;2022-09-09T02:59:45;100594.34;;;12.10;100.00
58622;BME280;44389;51.578;5.456;2022-09-09T03:02:11;100606.47;;;12.14;100.00
58622;BME280;44389;51.578;5.456;2022-09-09T03:04:38;100596.13;;;12.14;100.00
58622;BME280;44389;51.578;5.456;2022-09-09T03:07:03;100599.56;;;12.13;100.00
58622;BME280;44389;51.578;5.456;2022-09-09T03:09:30;100603.88;;;12.14;100.00
58622;BME280;44389;51.578;5.456;2022-09-09T03:11:55;100601.31;;;12.14;100.00
58622;BME280;44389;51.578;5.456;2022-09-09T03:14:22;100594.38;;;12.13;100.00
58622;BME280;44389;51.578;5.456;2022-09-09T03:16:50;100600.34;;;12.11;100.00
58622;BME280;44389;51.578;5.456;2022-09-09T03:19:16;100604.69;;;12.12;100.00
58622;BME280;44389;51.578;5.456;2022-09-09T03:21:41;100598.69;;;12.13;100.00
58622;BME280;44389;51.578;5.456;2022-09-09T03:24:06;100603.88;;;12.14;100.00
58622;BME280;44389;51.578;5.456;2022-09-09T03:26:32;100602.25;;;12.19;100.00
58622;BME280;44389;51.578;5.456;2022-09-09T03:28:58;100602.22;;;12.18;100.00
58622;BME280;44389;51.578;5.456;2022-09-09T03:31:25;100608.34;;;12.22;100.00
58622;BME280;44389;51.578;5.456;2022-09-09T03:33:51;100599.75;;;12.23;100.00
58622;BME280;44389;51.578;5.456;2022-09-09T03:36:17;100608.47;;;12.28;100.00
58622;BME280;44389;51.578;5.456;2022-09-09T03:38:42;100596.38;;;12.27;100.00
58622;BME280;44389;51.578;5.456;2022-09-09T03:41:07;100603.28;;;12.28;100.00
58622;BME280;44389;51.578;5.456;2022-09-09T03:43:33;100599.03;;;12.33;100.00
58622;BME280;44389;51.578;5.456;2022-09-09T03:45:58;100599.03;;;12.33;100.00
58622;BME280;44389;51.578;5.456;2022-09-09T03:48:24;100598.16;;;12.31;100.00
58622;BME280;44389;51.578;5.456;2022-09-09T03:50:52;100598.22;;;12.34;100.00
58622;BME280;44389;51.578;5.456;2022-09-09T03:53:20;100598.13;;;12.28;100.00
58622;BME280;44389;51.578;5.456;2022-09-09T03:55:51;100599.00;;;12.30;100.00
58622;BME280;44389;51.578;5.456;2022-09-09T03:58:20;100596.47;;;12.33;100.00
58622;BME280;44389;51.578;5.456;2022-09-09T04:01:13;100602.53;;;12.35;100.00
58622;BME280;44389;51.578;5.456;2022-09-09T04:03:38;100598.22;;;12.35;100.00
58622;BME280;44389;51.578;5.456;2022-09-09T04:06:05;100596.47;;;12.33;100.00
58622;BME280;44389;51.578;5.456;2022-09-09T04:08:31;100593.13;;;12.37;100.00
58622;BME280;44389;51.578;5.456;2022-09-09T04:10:57;100593.13;;;12.37;100.00
58622;BME280;44389;51.578;5.456;2022-09-09T04:13:23;100592.25;;;12.38;100.00
58622;BME280;44389;51.578;5.456;2022-09-09T04:15:53;100584.56;;;12.40;100.00
58622;BME280;44389;51.578;5.456;2022-09-09T04:18:19;100581.06;;;12.39;100.00
58622;BME280;44389;51.578;5.456;2022-09-09T04:20:48;100583.63;;;12.38;100.00
58622;BME280;44389;51.578;5.456;2022-09-09T04:23:15;100583.78;;;12.45;100.00
58622;BME280;44389;51.578;5.456;2022-09-09T04:25:48;100588.09;;;12.46;100.00
58622;BME280;44389;51.578;5.456;2022-09-09T04:28:15;100589.84;;;12.47;100.00
58622;BME280;44389;51.578;5.456;2022-09-09T04:30:41;100589.84;;;12.47;100.00
58622;BME280;44389;51.578;5.456;2022-09-09T04:33:07;100588.22;;;12.52;100.00
58622;BME280;44389;51.578;5.456;2022-09-09T04:35:33;100588.22;;;12.52;100.00
58622;BME280;44389;51.578;5.456;2022-09-09T04:37:59;100586.50;;;12.55;100.00
58622;BME280;44389;51.578;5.456;2022-09-09T04:40:24;100586.47;;;12.51;100.00
58622;BME280;44389;51.578;5.456;2022-09-09T04:42:50;100576.16;;;12.55;100.00
58622;BME280;44389;51.578;5.456;2022-09-09T04:45:16;100581.34;;;12.55;100.00
58622;BME280;44389;51.578;5.456;2022-09-09T04:47:41;100579.59;;;12.54;100.00
58622;BME280;44389;51.578;5.456;2022-09-09T04:50:08;100578.75;;;12.53;100.00
58622;BME280;44389;51.578;5.456;2022-09-09T04:52:34;100574.44;;;12.54;100.00
58622;BME280;44389;51.578;5.456;2022-09-09T04:55:00;100574.44;;;12.54;100.00
58622;BME280;44389;51.578;5.456;2022-09-09T04:57:26;100576.03;;;12.47;100.00
58622;BME280;44389;51.578;5.456;2022-09-09T04:59:51;100570.06;;;12.51;100.00
58622;BME280;44389;51.578;5.456;2022-09-09T05:02:16;100569.22;;;12.50;100.00
58622;BME280;44389;51.578;5.456;2022-09-09T05:04:42;100570.97;;;12.51;100.00
58622;BME280;44389;51.578;5.456;2022-09-09T05:07:07;100570.16;;;12.56;100.00
58622;BME280;44389;51.578;5.456;2022-09-09T05:09:33;100568.50;;;12.58;100.00
58622;BME280;44389;51.578;5.456;2022-09-09T05:11:58;100574.56;;;12.61;100.00
58622;BME280;44389;51.578;5.456;2022-09-09T05:14:23;100568.63;;;12.67;100.00
58622;BME280;44389;51.578;5.456;2022-09-09T05:16:48;100566.97;;;12.71;100.00
58622;BME280;44389;51.578;5.456;2022-09-09T05:19:15;100560.91;;;12.70;100.00
58622;BME280;44389;51.578;5.456;2022-09-09T05:21:40;100567.00;;;12.72;100.00
58622;BME280;44389;51.578;5.456;2022-09-09T05:24:06;100564.41;;;12.72;100.00
58622;BME280;44389;51.578;5.456;2022-09-09T05:26:32;100563.56;;;12.73;100.00
58622;BME280;44389;51.578;5.456;2022-09-09T05:28:57;100564.41;;;12.72;100.00
58622;BME280;44389;51.578;5.456;2022-09-09T05:31:24;100560.88;;;12.67;100.00
58622;BME280;44389;51.578;5.456;2022-09-09T05:33:54;100555.81;;;12.73;100.00
58622;BME280;44389;51.578;5.456;2022-09-09T05:36:20;100557.50;;;12.71;100.00
58622;BME280;44389;51.578;5.456;2022-09-09T05:38:46;100557.50;;;12.73;100.00
58622;BME280;44389;51.578;5.456;2022-09-09T05:41:13;100564.47;;;12.77;100.00
58622;BME280;44389;51.578;5.456;2022-09-09T05:43:41;100563.66;;;12.79;100.00
58622;BME280;44389;51.578;5.456;2022-09-09T05:46:09;100567.09;;;12.78;100.00
58622;BME280;44389;51.578;5.456;2022-09-09T05:48:39;100564.56;;;12.81;100.00
58622;BME280;44389;51.578;5.456;2022-09-09T05:51:06;100574.06;;;12.84;100.00
58622;BME280;44389;51.578;5.456;2022-09-09T05:53:32;100575.88;;;12.90;100.00
58622;BME280;44389;51.578;5.456;2022-09-09T05:56:08;100576.81;;;12.95;100.00
58622;BME280;44389;51.578;5.456;2022-09-09T05:58:37;100576.06;;;13.00;100.00
58622;BME280;44389;51.578;5.456;2022-09-09T06:01:08;100574.41;;;13.04;100.00
58622;BME280;44389;51.578;5.456;2022-09-09T06:03:35;100579.59;;;13.07;100.00
58622;BME280;44389;51.578;5.456;2022-09-09T06:06:04;100577.88;;;13.08;100.00
58622;BME280;44389;51.578;5.456;2022-09-09T06:08:34;100581.38;;;13.10;100.00
58622;BME280;44389;51.578;5.456;2022-09-09T06:13:34;100577.22;;;13.20;100.00
58622;BME280;44389;51.578;5.456;2022-09-09T06:16:02;100576.44;;;13.28;100.00
58622;BME280;44389;51.578;5.456;2022-09-09T06:18:27;100576.53;;;13.33;100.00
58622;BME280;44389;51.578;5.456;2022-09-09T06:20:57;100574.03;;;13.38;100.00
58622;BME280;44389;51.578;5.456;2022-09-09T06:23:22;100575.00;;;13.44;100.00
58622;BME280;44389;51.578;5.456;2022-09-09T06:25:48;100583.72;;;13.51;100.00
58622;BME280;44389;51.578;5.456;2022-09-09T06:28:14;100576.03;;;13.59;100.00
58622;BME280;44389;51.578;5.456;2022-09-09T06:30:40;100576.16;;;13.68;100.00
58622;BME280;44389;51.578;5.456;2022-09-09T06:33:06;100571.06;;;13.77;100.00
58622;BME280;44389;51.578;5.456;2022-09-09T06:35:31;100574.56;;;13.79;100.00
58622;BME280;44389;51.578;5.456;2022-09-09T06:37:57;100579.78;;;13.82;100.00
58622;BME280;44389;51.578;5.456;2022-09-09T06:40:24;100584.94;;;13.81;100.00
58622;BME280;44389;51.578;5.456;2022-09-09T06:42:49;100572.00;;;13.81;100.00
58622;BME280;44389;51.578;5.456;2022-09-09T06:45:14;100574.66;;;13.86;100.00
58622;BME280;44389;51.578;5.456;2022-09-09T06:47:40;100576.44;;;13.93;100.00
58622;BME280;44389;51.578;5.456;2022-09-09T06:50:06;100574.75;;;13.95;100.00
58622;BME280;44389;51.578;5.456;2022-09-09T06:52:33;100574.72;;;13.93;100.00
58622;BME280;44389;51.578;5.456;2022-09-09T06:54:58;100579.91;;;13.92;100.00
58622;BME280;44389;51.578;5.456;2022-09-09T06:57:24;100573.88;;;13.94;100.00
58622;BME280;44389;51.578;5.456;2022-09-09T06:59:49;100572.25;;;14.03;100.00
58622;BME280;44389;51.578;5.456;2022-09-09T07:02:14;100569.75;;;14.13;100.00
58622;BME280;44389;51.578;5.456;2022-09-09T07:04:40;100562.94;;;14.22;100.00
58622;BME280;44389;51.578;5.456;2022-09-09T07:07:05;100572.56;;;14.35;100.00
58622;BME280;44389;51.578;5.456;2022-09-09T07:09:30;100583.88;;;14.43;100.00
58622;BME280;44389;51.578;5.456;2022-09-09T07:11:56;100574.44;;;14.50;100.00
58622;BME280;44389;51.578;5.456;2022-09-09T07:14:24;100577.09;;;14.58;100.00
58622;BME280;44389;51.578;5.456;2022-09-09T07:16:49;100572.78;;;14.57;100.00
58622;BME280;44389;51.578;5.456;2022-09-09T07:19:15;100571.13;;;14.65;100.00
58622;BME280;44389;51.578;5.456;2022-09-09T07:21:40;100576.38;;;14.74;100.00
58622;BME280;44389;51.578;5.456;2022-09-09T07:24:06;100568.66;;;14.80;100.00
58622;BME280;44389;51.578;5.456;2022-09-09T07:26:36;100572.19;;;14.89;100.00
58622;BME280;44389;51.578;5.456;2022-09-09T07:29:02;100567.94;;;14.98;100.00
58622;BME280;44389;51.578;5.456;2022-09-09T07:31:33;100564.56;;;15.12;100.00
58622;BME280;44389;51.578;5.456;2022-09-09T07:33:59;100560.38;;;15.34;100.00
58622;BME280;44389;51.578;5.456;2022-09-09T07:36:30;100568.25;;;15.54;99.92
58622;BME280;44389;51.578;5.456;2022-09-09T07:38:58;100561.31;;;15.50;97.37
58622;BME280;44389;51.578;5.456;2022-09-09T07:41:27;100566.50;;;15.47;98.19
58622;BME280;44389;51.578;5.456;2022-09-09T07:43:53;100565.59;;;15.40;96.49
58622;BME280;44389;51.578;5.456;2022-09-09T07:46:20;100571.59;;;15.33;97.89
58622;BME280;44389;51.578;5.456;2022-09-09T07:48:48;100571.63;;;15.35;98.45
58622;BME280;44389;51.578;5.456;2022-09-09T07:51:17;100568.16;;;15.36;97.93
58622;BME280;44389;51.578;5.456;2022-09-09T07:53:43;100575.09;;;15.35;96.85
58622;BME280;44389;51.578;5.456;2022-09-09T07:56:11;100569.91;;;15.37;97.21
58622;BME280;44389;51.578;5.456;2022-09-09T07:58:37;100567.34;;;15.44;98.13
58622;BME280;44389;51.578;5.456;2022-09-09T08:01:11;100576.84;;;15.44;97.67
58622;BME280;44389;51.578;5.456;2022-09-09T08:03:37;100574.28;;;15.48;96.94
58622;BME280;44389;51.578;5.456;2022-09-09T08:06:05;100575.22;;;15.63;97.39
58622;BME280;44389;51.578;5.456;2022-09-09T08:08:31;100573.50;;;15.68;94.83
58622;BME280;44389;51.578;5.456;2022-09-09T08:11:08;100570.94;;;15.74;94.21
58622;BME280;44389;51.578;5.456;2022-09-09T08:13:36;100577.03;;;15.76;93.34
58622;BME280;44389;51.578;5.456;2022-09-09T08:16:06;100578.78;;;15.82;94.09
58622;BME280;44389;51.578;5.456;2022-09-09T08:18:32;100575.28;;;15.80;92.53
58622;BME280;44389;51.578;5.456;2022-09-09T08:20:57;100573.56;;;15.80;94.21
58622;BME280;44389;51.578;5.456;2022-09-09T08:23:22;100574.47;;;15.86;93.49
58622;BME280;44389;51.578;5.456;2022-09-09T08:25:48;100571.03;;;15.90;92.67
58622;BME280;44389;51.578;5.456;2022-09-09T08:28:13;100581.44;;;15.99;92.38
58622;BME280;44389;51.578;5.456;2022-09-09T08:30:39;100582.31;;;16.07;92.49
58622;BME280;44389;51.578;5.456;2022-09-09T08:33:04;100587.56;;;16.18;92.47
58622;BME280;44389;51.578;5.456;2022-09-09T08:35:30;100589.28;;;16.18;89.95
58622;BME280;44389;51.578;5.456;2022-09-09T08:37:57;100584.09;;;16.19;89.03
58622;BME280;44389;51.578;5.456;2022-09-09T08:40:28;100591.91;;;16.19;88.55
58622;BME280;44389;51.578;5.456;2022-09-09T08:42:56;100587.56;;;16.18;88.73
58622;BME280;44389;51.578;5.456;2022-09-09T08:45:30;100591.03;;;16.19;88.03
58622;BME280;44389;51.578;5.456;2022-09-09T08:50:30;100597.97;;;16.20;89.19
58622;BME280;44389;51.578;5.456;2022-09-09T08:55:48;100599.66;;;16.07;89.57
58622;BME280;44389;51.578;5.456;2022-09-09T08:58:22;100595.31;;;16.01;88.74
58622;BME280;44389;51.578;5.456;2022-09-09T09:03:46;100604.88;;;16.07;89.32
58622;BME280;44389;51.578;5.456;2022-09-09T09:11:26;100614.44;;;16.16;87.51
58622;BME280;44389;51.578;5.456;2022-09-09T09:13:57;100613.59;;;16.24;88.59
58622;BME280;44389;51.578;5.456;2022-09-09T09:16:33;100623.09;;;16.21;87.81
58622;BME280;44389;51.578;5.456;2022-09-09T09:18:59;100610.09;;;16.19;87.65
58622;BME280;44389;51.578;5.456;2022-09-09T09:21:36;100610.97;;;16.23;87.85
58622;BME280;44389;51.578;5.456;2022-09-09T09:24:10;100616.19;;;16.29;87.06
58622;BME280;44389;51.578;5.456;2022-09-09T09:26:42;100617.94;;;16.45;86.69
58622;BME280;44389;51.578;5.456;2022-09-09T09:29:15;100623.16;;;16.42;85.48
58622;BME280;44389;51.578;5.456;2022-09-09T09:31:45;100627.50;;;16.37;86.04
58622;BME280;44389;51.578;5.456;2022-09-09T09:34:11;100617.03;;;16.25;85.61
58622;BME280;44389;51.578;5.456;2022-09-09T09:39:09;100619.66;;;16.22;86.95
58622;BME280;44389;51.578;5.456;2022-09-09T09:41:40;100619.66;;;16.31;86.63
58622;BME280;44389;51.578;5.456;2022-09-09T09:44:22;100622.28;;;16.50;86.90
58622;BME280;44389;51.578;5.456;2022-09-09T09:46:48;100614.50;;;16.56;85.42
58622;BME280;44389;51.578;5.456;2022-09-09T09:49:13;100611.06;;;16.63;85.12
58622;BME280;44389;51.578;5.456;2022-09-09T09:51:39;100611.03;;;16.58;84.74
58622;BME280;44389;51.578;5.456;2022-09-09T09:54:28;100628.34;;;16.49;88.20
58622;BME280;44389;51.578;5.456;2022-09-09T09:56:55;100613.53;;;16.15;90.27
58622;BME280;44389;51.578;5.456;2022-09-09T09:59:23;100613.50;;;15.96;91.89
58622;BME280;44389;51.578;5.456;2022-09-09T10:01:48;100612.59;;;15.94;94.33
58622;BME280;44389;51.578;5.456;2022-09-09T10:04:16;100604.78;;;15.85;92.09
58622;BME280;44389;51.578;5.456;2022-09-09T10:06:43;100613.41;;;15.78;92.12
58622;BME280;44389;51.578;5.456;2022-09-09T10:14:50;100621.81;;;15.34;99.12
58622;BME280;44389;51.578;5.456;2022-09-09T10:33:57;100628.06;;;15.65;100.00
58622;BME280;44389;51.578;5.456;2022-09-09T10:36:27;100627.16;;;15.58;100.00
58622;BME280;44389;51.578;5.456;2022-09-09T10:39:26;100632.31;;;15.51;99.75
58622;BME280;44389;51.578;5.456;2022-09-09T10:42:06;100634.81;;;15.38;100.00
58622;BME280;44389;51.578;5.456;2022-09-09T10:53:22;100633.16;;;15.50;100.00
58622;BME280;44389;51.578;5.456;2022-09-09T10:55:57;100627.09;;;15.46;100.00
58622;BME280;44389;51.578;5.456;2022-09-09T10:58:30;100627.13;;;15.51;100.00
58622;BME280;44389;51.578;5.456;2022-09-09T11:01:06;100623.72;;;15.61;99.51
58622;BME280;44389;51.578;5.456;2022-09-09T11:03:37;100618.56;;;15.72;98.71
58622;BME280;44389;51.578;5.456;2022-09-09T11:06:11;100623.75;;;15.72;99.54
58622;BME280;44389;51.578;5.456;2022-09-09T11:08:38;100622.06;;;15.80;100.00
58622;BME280;44389;51.578;5.456;2022-09-09T11:11:13;100617.69;;;15.71;100.00
58622;BME280;44389;51.578;5.456;2022-09-09T11:22:01;100618.53;;;15.62;100.00
58622;BME280;44389;51.578;5.456;2022-09-09T11:24:40;100624.59;;;15.69;100.00
58622;BME280;44389;51.578;5.456;2022-09-09T11:38:16;100615.25;;;15.96;100.00
58622;BME280;44389;51.578;5.456;2022-09-09T11:40:44;100618.59;;;15.78;98.59
58622;BME280;44389;51.578;5.456;2022-09-09T11:43:15;100619.41;;;15.69;100.00
58622;BME280;44389;51.578;5.456;2022-09-09T11:45:42;100615.06;;;15.67;100.00
58622;BME280;44389;51.578;5.456;2022-09-09T11:48:35;100621.13;;;15.61;99.76
58622;BME280;44389;51.578;5.456;2022-09-09T11:51:07;100615.03;;;15.56;100.00
58622;BME280;44389;51.578;5.456;2022-09-09T11:53:34;100615.88;;;15.56;100.00
58622;BME280;44389;51.578;5.456;2022-09-09T11:56:08;100616.78;;;15.64;99.64
58622;BME280;44389;51.578;5.456;2022-09-09T11:58:38;100619.38;;;15.64;100.00
58622;BME280;44389;51.578;5.456;2022-09-09T12:01:35;100617.66;;;15.68;100.00
58622;BME280;44389;51.578;5.456;2022-09-09T12:06:45;100619.53;;;15.82;99.23
58622;BME280;44389;51.578;5.456;2022-09-09T12:09:22;100621.28;;;15.98;98.89
58622;BME280;44389;51.578;5.456;2022-09-09T12:11:51;100617.91;;;16.24;98.59
58622;BME280;44389;51.578;5.456;2022-09-09T12:14:36;100616.22;;;16.51;97.51
58622;BME280;44389;51.578;5.456;2022-09-09T12:17:29;100618.84;;;16.74;95.29
58622;BME280;44389;51.578;5.456;2022-09-09T12:28:24;100618.69;;;17.84;86.84
58622;BME280;44389;51.578;5.456;2022-09-09T12:31:06;100604.88;;;17.55;87.66
58622;BME280;44389;51.578;5.456;2022-09-09T12:33:36;100611.91;;;17.33;87.98
58622;BME280;44389;51.578;5.456;2022-09-09T12:36:03;100602.31;;;17.51;87.27
58622;BME280;44389;51.578;5.456;2022-09-09T12:38:40;100607.50;;;17.54;87.35
58622;BME280;44389;51.578;5.456;2022-09-09T12:41:06;100609.13;;;17.95;86.88
58622;BME280;44389;51.578;5.456;2022-09-09T12:43:31;100604.81;;;17.72;85.69
58622;BME280;44389;51.578;5.456;2022-09-09T12:46:08;100600.53;;;17.62;85.77
58622;BME280;44389;51.578;5.456;2022-09-09T12:48:40;100606.66;;;17.47;85.99
58622;BME280;44389;51.578;5.456;2022-09-09T12:51:24;100609.31;;;17.30;85.62
58622;BME280;44389;51.578;5.456;2022-09-09T12:53:50;100603.25;;;17.17;88.61
58622;BME280;44389;51.578;5.456;2022-09-09T12:56:20;100607.59;;;16.92;88.99
58622;BME280;44389;51.578;5.456;2022-09-09T12:58:49;100601.50;;;16.62;92.26
58622;BME280;44389;51.578;5.456;2022-09-09T13:01:31;100600.59;;;16.35;95.87
58622;BME280;44389;51.578;5.456;2022-09-09T13:03:57;100609.19;;;16.12;98.33
58622;BME280;44389;51.578;5.456;2022-09-09T13:06:30;100613.47;;;15.92;99.80
58622;BME280;44389;51.578;5.456;2022-09-09T13:09:01;100611.72;;;15.89;100.00
58622;BME280;44389;51.578;5.456;2022-09-09T13:11:46;100610.88;;;15.92;100.00
58622;BME280;44389;51.578;5.456;2022-09-09T13:14:28;100600.53;;;16.10;100.00
58622;BME280;44389;51.578;5.456;2022-09-09T13:16:56;100600.66;;;17.06;100.00
58622;BME280;44389;51.578;5.456;2022-09-09T13:19:22;100591.03;;;17.41;98.84
58622;BME280;44389;51.578;5.456;2022-09-09T13:21:50;100594.47;;;17.60;97.30
58622;BME280;44389;51.578;5.456;2022-09-09T13:24:34;100591.50;;;18.34;94.52
58622;BME280;44389;51.578;5.456;2022-09-09T13:27:02;100588.25;;;19.16;90.29
58622;BME280;44389;51.578;5.456;2022-09-09T13:29:29;100584.63;;;20.04;84.41
58622;BME280;44389;51.578;5.456;2022-09-09T13:32:16;100585.81;;;20.97;83.60
58622;BME280;44389;51.578;5.456;2022-09-09T13:34:54;100588.06;;;21.19;79.02
58622;BME280;44389;51.578;5.456;2022-09-09T13:37:28;100576.47;;;21.31;76.56
58622;BME280;44389;51.578;5.456;2022-09-09T13:39:56;100583.69;;;21.18;75.95
58622;BME280;44389;51.578;5.456;2022-09-09T13:42:27;100580.84;;;20.82;78.04
58622;BME280;44389;51.578;5.456;2022-09-09T13:44:54;100582.53;;;20.84;75.28
58622;BME280;44389;51.578;5.456;2022-09-09T13:47:31;100587.66;;;20.34;78.17
58622;BME280;44389;51.578;5.456;2022-09-09T13:49:56;100583.88;;;19.95;78.88
58622;BME280;44389;51.578;5.456;2022-09-09T13:52:22;100578.22;;;19.57;79.21
58622;BME280;44389;51.578;5.456;2022-09-09T13:54:49;100588.25;;;19.16;82.53
58622;BME280;44389;51.578;5.456;2022-09-09T13:57:19;100583.25;;;18.90;82.43
58622;BME280;44389;51.578;5.456;2022-09-09T13:59:46;100580.75;;;18.74;84.40
58622;BME280;44389;51.578;5.456;2022-09-09T14:02:11;100588.03;;;18.34;85.34
58622;BME280;44389;51.578;5.456;2022-09-09T14:04:37;100575.19;;;18.03;87.18
58622;BME280;44389;51.578;5.456;2022-09-09T14:07:03;100574.34;;;17.90;89.47
58622;BME280;44389;51.578;5.456;2022-09-09T14:09:28;100577.84;;;17.84;90.89
58622;BME280;44389;51.578;5.456;2022-09-09T14:11:53;100567.41;;;17.86;89.83
58622;BME280;44389;51.578;5.456;2022-09-09T14:14:20;100573.47;;;17.88;89.07
58622;BME280;44389;51.578;5.456;2022-09-09T14:16:45;100574.38;;;17.84;87.83
58622;BME280;44389;51.578;5.456;2022-09-09T14:19:11;100570.84;;;17.89;89.92
58622;BME280;44389;51.578;5.456;2022-09-09T14:21:36;100576.00;;;18.09;86.73
58622;BME280;44389;51.578;5.456;2022-09-09T14:24:01;100566.44;;;18.12;85.85
58622;BME280;44389;51.578;5.456;2022-09-09T14:26:27;100563.88;;;18.02;86.55
58622;BME280;44389;51.578;5.456;2022-09-09T14:28:54;100567.38;;;17.98;87.71
58622;BME280;44389;51.578;5.456;2022-09-09T14:31:20;100569.91;;;18.12;87.09
58622;BME280;44389;51.578;5.456;2022-09-09T14:33:46;100564.59;;;18.27;86.62
58622;BME280;44389;51.578;5.456;2022-09-09T14:36:11;100565.38;;;18.40;85.29
58622;BME280;44389;51.578;5.456;2022-09-09T14:38:37;100567.19;;;18.32;83.78